Time;durP1;ratioP1;P1;durP2;ratioP2;P2;SDS_P1;SDS_P2;PMS_P1;PMS_P2;Temp;Humidity;BMP_temperature;BMP_pressure;BME280_temperature;BME280_humidity;BME280_pressure;Samples;Min_cycle;Max_cycle;Signal;HPM_P1;HPM_P2
2022/06/03 00:01:15;;;;;;;2.38;1.52;;;15.00;67.80;;;;;;5046429;28;20045;-62
2022/06/03 00:03:53;;;;;;;1.95;1.40;;;15.00;67.90;;;;;;5011073;28;20017;-63
2022/06/03 00:06:34;;;;;;;2.20;1.60;;;14.90;68.10;;;;;;5037529;28;20476;-62
2022/06/03 00:09:56;;;;;;;3.70;1.45;;;14.90;68.30;;;;;;5046126;28;20473;-62
2022/06/03 00:12:43;;;;;;;2.67;1.55;;;14.80;68.40;;;;;;5027833;28;20029;-62
2022/06/03 00:15:19;;;;;;;1.90;1.38;;;14.70;68.70;;;;;;5007517;28;20028;-62
2022/06/03 00:17:55;;;;;;;2.33;1.88;;;14.70;69.00;;;;;;5033620;28;20630;-62
2022/06/03 00:20:39;;;;;;;2.63;2.25;;;14.70;69.10;;;;;;5032523;28;20022;-62
2022/06/03 00:23:36;;;;;;;2.17;1.75;;;14.70;69.20;;;;;;5047562;28;20021;-63
2022/06/03 00:26:28;;;;;;;1.95;1.65;;;14.60;69.50;;;;;;5045670;28;20116;-62
2022/06/03 00:29:15;;;;;;;5.25;2.53;;;14.60;69.80;;;;;;5051018;28;20410;-62
2022/06/03 00:31:46;;;;;;;2.92;2.55;;;14.50;70.30;;;;;;5044587;28;20031;-63
2022/06/03 00:34:24;;;;;;;3.65;2.85;;;14.40;70.60;;;;;;5052647;28;20372;-62
2022/06/03 00:36:58;;;;;;;5.63;3.00;;;14.30;71.10;;;;;;5047765;28;20035;-62
2022/06/03 00:39:41;;;;;;;5.15;2.85;;;14.20;71.50;;;;;;5047695;28;20044;-62
2022/06/03 00:42:37;;;;;;;2.90;2.60;;;14.30;71.90;;;;;;5049629;28;20107;-62
2022/06/03 00:45:33;;;;;;;2.47;2.08;;;14.20;72.00;;;;;;5051116;28;20057;-62
2022/06/03 00:47:59;;;;;;;2.50;2.28;;;14.20;72.00;;;;;;5050097;28;20083;-62
2022/06/03 00:50:46;;;;;;;3.55;2.80;;;14.10;72.30;;;;;;5047651;28;20464;-62
2022/06/03 00:53:27;;;;;;;3.25;2.60;;;14.10;72.90;;;;;;5044731;28;20072;-62
2022/06/03 00:56:05;;;;;;;3.33;2.60;;;14.00;73.10;;;;;;5050217;28;20032;-62
2022/06/03 00:58:55;;;;;;;3.13;2.50;;;14.00;73.50;;;;;;5050080;28;20021;-62
2022/06/03 01:01:27;;;;;;;2.58;2.30;;;14.00;73.70;;;;;;5049494;28;20028;-62
2022/06/03 01:04:08;;;;;;;3.10;2.55;;;13.90;74.40;;;;;;5052549;28;20094;-62
2022/06/03 01:06:49;;;;;;;3.83;2.50;;;13.90;73.80;;;;;;5052106;28;20365;-62
2022/06/03 01:09:34;;;;;;;2.20;2.00;;;13.90;74.00;;;;;;5050929;28;20074;-62
2022/06/03 01:12:09;;;;;;;3.38;2.55;;;13.90;74.20;;;;;;5050557;28;20557;-62
2022/06/03 01:14:46;;;;;;;3.50;2.40;;;13.90;74.60;;;;;;5048796;28;20028;-62
2022/06/03 01:17:37;;;;;;;2.28;2.08;;;13.90;74.50;;;;;;5049719;28;20548;-62
2022/06/03 01:20:14;;;;;;;3.47;2.40;;;13.90;74.80;;;;;;5046479;28;20060;-62
2022/06/03 01:23:01;;;;;;;3.85;2.08;;;13.90;75.10;;;;;;5051506;28;20017;-62
2022/06/03 01:26:07;;;;;;;3.38;2.63;;;13.90;75.60;;;;;;5050835;28;20443;-62
2022/06/03 01:28:48;;;;;;;4.40;3.33;;;13.90;75.70;;;;;;5047910;28;20024;-62
2022/06/03 01:31:38;;;;;;;3.35;2.72;;;13.80;76.50;;;;;;5051041;28;20516;-62
2022/06/03 01:34:22;;;;;;;3.05;2.70;;;13.80;76.90;;;;;;5048940;28;20033;-63
2022/06/03 01:37:21;;;;;;;3.75;3.15;;;13.80;77.30;;;;;;5050130;28;20025;-62
2022/06/03 01:40:11;;;;;;;5.10;2.92;;;13.80;77.70;;;;;;5048912;28;20025;-62
2022/06/03 01:42:55;;;;;;;3.42;2.85;;;13.80;77.90;;;;;;5046892;28;20017;-62
2022/06/03 01:45:46;;;;;;;4.22;3.75;;;13.80;78.20;;;;;;5047249;28;20017;-62
2022/06/03 01:48:38;;;;;;;4.75;3.28;;;13.70;78.80;;;;;;5048026;28;20039;-62
2022/06/03 01:51:31;;;;;;;4.03;3.15;;;13.70;79.10;;;;;;5045855;28;20136;-62
2022/06/03 01:54:15;;;;;;;4.35;3.60;;;13.80;79.50;;;;;;5062644;28;20041;-62
2022/06/03 01:57:06;;;;;;;4.35;3.65;;;13.70;80.00;;;;;;5046083;28;20472;-62
2022/06/03 01:59:44;;;;;;;3.95;3.28;;;13.80;80.80;;;;;;5048498;28;20028;-63
2022/06/03 02:02:16;;;;;;;4.63;3.40;;;13.70;80.50;;;;;;5046394;28;20056;-63
2022/06/03 02:05:03;;;;;;;3.78;3.40;;;13.70;80.60;;;;;;5048886;28;20021;-62
2022/06/03 02:08:03;;;;;;;6.18;3.75;;;13.70;80.70;;;;;;5047337;28;20075;-62
2022/06/03 02:11:05;;;;;;;4.57;3.35;;;13.70;80.70;;;;;;5041075;28;20026;-62
2022/06/03 02:13:42;;;;;;;4.13;3.22;;;13.70;80.70;;;;;;5047037;28;20025;-62
2022/06/03 02:16:17;;;;;;;5.80;3.70;;;13.60;81.00;;;;;;5040943;28;20035;-62
2022/06/03 02:19:22;;;;;;;5.57;3.72;;;13.70;81.20;;;;;;5044627;28;20022;-62
2022/06/03 02:22:00;;;;;;;4.85;3.33;;;13.70;81.30;;;;;;5065981;28;20322;-62
2022/06/03 02:24:40;;;;;;;3.50;3.10;;;13.70;81.60;;;;;;5044775;28;20029;-62
2022/06/03 02:27:26;;;;;;;4.30;3.03;;;13.70;81.70;;;;;;5048435;28;20017;-62
2022/06/03 02:30:25;;;;;;;4.15;3.63;;;13.70;81.90;;;;;;5047418;28;20022;-62
2022/06/03 02:32:56;;;;;;;5.20;3.55;;;13.60;82.00;;;;;;5046351;28;20070;-62
2022/06/03 02:35:31;;;;;;;4.13;3.72;;;13.60;82.30;;;;;;5048049;28;20045;-62
2022/06/03 02:38:08;;;;;;;4.35;3.42;;;13.60;82.30;;;;;;5048764;28;20017;-62
2022/06/03 02:40:35;;;;;;;4.95;3.58;;;13.60;82.60;;;;;;5048601;28;20381;-62
2022/06/03 02:43:43;;;;;;;4.22;3.55;;;13.50;82.90;;;;;;5047935;28;20071;-62
2022/06/03 02:46:27;;;;;;;4.95;4.10;;;13.60;83.00;;;;;;5035470;28;20027;-62
2022/06/03 02:49:07;;;;;;;5.68;4.30;;;13.50;83.30;;;;;;5042518;28;20496;-62
2022/06/03 02:51:57;;;;;;;6.00;4.57;;;13.50;83.60;;;;;;5039692;28;20037;-62
2022/06/03 02:55:00;;;;;;;4.43;4.03;;;13.50;83.80;;;;;;5033850;28;20044;-62
2022/06/03 02:57:43;;;;;;;4.55;3.80;;;13.40;83.90;;;;;;5037115;28;20041;-62
2022/06/03 03:00:37;;;;;;;4.82;4.35;;;13.40;84.30;;;;;;5039950;28;20578;-62
2022/06/03 03:03:41;;;;;;;4.90;3.95;;;13.40;84.60;;;;;;5039518;28;20036;-62
2022/06/03 03:06:26;;;;;;;4.45;3.78;;;13.40;84.60;;;;;;5041198;28;20021;-62
2022/06/03 03:09:17;;;;;;;4.72;3.80;;;13.30;84.80;;;;;;5034559;28;20055;-62
2022/06/03 03:12:10;;;;;;;5.90;4.22;;;13.30;84.70;;;;;;5037752;28;20024;-62
2022/06/03 03:15:05;;;;;;;4.53;4.10;;;13.30;84.90;;;;;;5039614;28;20617;-62
2022/06/03 03:18:09;;;;;;;5.13;3.97;;;13.30;85.30;;;;;;5033716;28;20021;-62
2022/06/03 03:20:48;;;;;;;4.28;3.88;;;13.20;85.20;;;;;;5035894;28;20470;-62
2022/06/03 03:23:22;;;;;;;3.63;3.33;;;13.30;85.60;;;;;;5031518;28;20397;-62
2022/06/03 03:26:07;;;;;;;3.80;3.40;;;13.20;85.90;;;;;;5042032;28;20025;-62
2022/06/03 03:28:35;;;;;;;4.30;3.55;;;13.20;85.70;;;;;;5033956;28;20337;-62
2022/06/03 03:31:17;;;;;;;4.28;3.30;;;13.20;86.10;;;;;;5029800;28;20033;-62
2022/06/03 03:34:04;;;;;;;4.38;3.83;;;13.20;86.00;;;;;;5031691;28;20025;-62
2022/06/03 03:37:07;;;;;;;3.80;3.40;;;13.20;86.10;;;;;;5042289;28;20029;-62
2022/06/03 03:39:53;;;;;;;4.43;3.50;;;13.20;86.10;;;;;;5040771;28;20032;-62
2022/06/03 03:42:34;;;;;;;3.70;3.30;;;13.10;86.40;;;;;;5028262;28;20040;-62
2022/06/03 03:45:27;;;;;;;4.90;3.80;;;13.10;86.60;;;;;;5042014;28;20101;-62
2022/06/03 03:48:17;;;;;;;5.95;3.90;;;13.10;86.70;;;;;;5028984;28;20369;-62
2022/06/03 03:51:07;;;;;;;4.28;3.35;;;13.00;87.70;;;;;;5032490;28;20032;-62
2022/06/03 03:54:05;;;;;;;4.60;4.10;;;13.00;87.20;;;;;;5035286;28;20068;-62
2022/06/03 03:57:09;;;;;;;4.72;3.78;;;13.00;87.40;;;;;;5047037;28;20029;-62
2022/06/03 04:00:11;;;;;;;6.13;4.38;;;13.00;87.70;;;;;;5043085;28;20040;-62
2022/06/03 04:02:46;;;;;;;6.10;3.92;;;12.90;88.00;;;;;;5037594;28;20489;-62
2022/06/03 04:06:06;;;;;;;4.68;3.72;;;12.90;88.30;;;;;;5039523;28;20469;-63
2022/06/03 04:09:02;;;;;;;4.32;3.55;;;12.90;88.50;;;;;;5006677;28;20072;-62
2022/06/03 04:11:52;;;;;;;4.30;3.88;;;12.80;88.70;;;;;;5033628;28;20041;-62
2022/06/03 04:14:27;;;;;;;5.28;4.60;;;12.80;89.00;;;;;;5034612;28;20028;-62
2022/06/03 04:17:17;;;;;;;4.25;3.75;;;12.80;89.50;;;;;;5038011;28;20032;-63
2022/06/03 04:20:20;;;;;;;5.20;4.25;;;12.80;89.50;;;;;;5038645;28;20039;-62
2022/06/03 04:23:19;;;;;;;7.20;4.35;;;12.80;89.60;;;;;;5040310;28;20025;-62
2022/06/03 04:26:06;;;;;;;4.95;4.20;;;12.90;89.80;;;;;;5034183;28;20488;-62
2022/06/03 04:28:51;;;;;;;4.93;3.95;;;12.80;90.10;;;;;;5039972;28;20049;-62
2022/06/03 04:31:47;;;;;;;5.50;4.05;;;12.90;90.10;;;;;;5034821;28;20104;-62
2022/06/03 04:34:31;;;;;;;6.53;5.07;;;12.90;90.20;;;;;;5035432;28;20021;-62
2022/06/03 04:37:02;;;;;;;5.15;4.13;;;12.90;90.30;;;;;;5035821;28;20465;-62
2022/06/03 04:39:43;;;;;;;6.15;4.20;;;12.90;90.30;;;;;;5041345;28;20139;-62
2022/06/03 04:42:44;;;;;;;5.75;4.45;;;12.90;90.30;;;;;;5034785;28;20135;-62
2022/06/03 04:45:57;;;;;;;4.80;4.30;;;12.90;90.30;;;;;;5038194;28;20028;-62
2022/06/03 04:48:29;;;;;;;6.75;4.40;;;12.90;90.40;;;;;;5035430;28;20424;-62
2022/06/03 04:51:41;;;;;;;8.52;5.10;;;12.90;90.60;;;;;;5040522;28;20448;-62
2022/06/03 04:54:45;;;;;;;5.03;4.50;;;13.00;90.50;;;;;;5032851;28;20041;-62
2022/06/03 04:57:33;;;;;;;5.68;4.90;;;13.00;90.60;;;;;;5039058;28;20025;-62
2022/06/03 05:00:25;;;;;;;6.72;5.25;;;13.00;90.80;;;;;;5044368;28;20025;-62
2022/06/03 05:03:08;;;;;;;5.40;4.28;;;13.00;90.90;;;;;;5036029;28;20047;-62
2022/06/03 05:06:11;;;;;;;5.45;4.95;;;13.00;90.90;;;;;;5034122;28;20120;-62
2022/06/03 05:09:04;;;;;;;5.07;4.40;;;13.10;90.90;;;;;;5034688;28;20026;-62
2022/06/03 05:11:57;;;;;;;5.80;5.05;;;13.10;90.90;;;;;;5031307;28;20057;-62
2022/06/03 05:14:47;;;;;;;6.57;4.97;;;13.10;90.90;;;;;;5033705;28;20064;-62
2022/06/03 05:17:44;;;;;;;5.18;4.68;;;13.20;91.00;;;;;;5036435;28;20080;-62
2022/06/03 05:20:29;;;;;;;5.40;4.85;;;13.20;90.80;;;;;;5033386;28;20025;-62
2022/06/03 05:23:24;;;;;;;6.75;5.13;;;13.20;91.00;;;;;;5036697;28;20021;-62
2022/06/03 05:26:47;;;;;;;5.18;4.65;;;13.20;90.90;;;;;;5009467;28;20584;-62
2022/06/03 05:29:32;;;;;;;5.50;4.47;;;13.30;90.80;;;;;;5007630;28;20173;-62
2022/06/03 05:32:00;;;;;;;5.53;4.75;;;13.40;91.10;;;;;;5035521;28;20037;-62
2022/06/03 05:34:44;;;;;;;7.45;5.57;;;13.40;90.80;;;;;;5030498;28;20129;-62
2022/06/03 05:37:31;;;;;;;5.07;4.57;;;13.50;90.60;;;;;;5058518;28;20027;-62
2022/06/03 05:40:36;;;;;;;7.70;4.78;;;13.50;90.50;;;;;;5040448;28;20459;-62
2022/06/03 05:43:14;;;;;;;7.05;4.85;;;13.50;90.30;;;;;;5034411;28;20029;-62
2022/06/03 05:46:07;;;;;;;6.38;4.60;;;13.60;90.30;;;;;;5039279;28;20495;-62
2022/06/03 05:48:51;;;;;;;6.45;5.00;;;13.70;90.20;;;;;;5033336;28;20061;-62
2022/06/03 05:51:50;;;;;;;5.22;4.68;;;13.70;90.00;;;;;;5043756;28;20108;-62
2022/06/03 05:54:18;;;;;;;6.32;5.43;;;13.80;89.90;;;;;;5037766;28;20036;-62
2022/06/03 05:57:19;;;;;;;5.88;5.15;;;13.80;89.90;;;;;;5037049;28;20025;-62
2022/06/03 06:00:18;;;;;;;6.75;5.47;;;13.80;89.60;;;;;;5036484;28;20029;-62
2022/06/03 06:02:48;;;;;;;5.15;4.47;;;13.90;89.40;;;;;;5037224;28;20025;-62
2022/06/03 06:05:36;;;;;;;7.03;4.80;;;13.90;89.30;;;;;;5037192;28;20024;-62
2022/06/03 06:08:39;;;;;;;6.63;5.28;;;14.00;89.10;;;;;;5038407;28;20032;-62
2022/06/03 06:11:26;;;;;;;5.18;4.68;;;14.10;89.10;;;;;;5037653;28;20481;-62
2022/06/03 06:14:31;;;;;;;5.88;4.95;;;14.10;88.90;;;;;;5046343;28;20029;-62
2022/06/03 06:17:19;;;;;;;5.47;4.93;;;14.20;88.50;;;;;;5036796;28;20385;-62
2022/06/03 06:20:00;;;;;;;7.30;5.05;;;14.20;88.30;;;;;;5032943;28;20036;-62
2022/06/03 06:22:30;;;;;;;6.93;4.78;;;14.20;87.70;;;;;;5046867;28;20033;-62
2022/06/03 06:25:34;;;;;;;6.90;5.00;;;14.30;87.70;;;;;;5040204;28;20018;-62
2022/06/03 06:28:16;;;;;;;5.88;4.97;;;14.40;87.40;;;;;;5030869;28;20040;-62
2022/06/03 06:31:04;;;;;;;5.40;4.25;;;14.40;87.20;;;;;;5038615;28;20032;-62
2022/06/03 06:33:39;;;;;;;5.28;4.57;;;14.40;87.00;;;;;;5032386;28;20430;-62
2022/06/03 06:36:27;;;;;;;4.57;3.95;;;14.60;86.90;;;;;;5033614;28;20397;-62
2022/06/03 06:39:04;;;;;;;4.10;3.70;;;14.60;87.20;;;;;;5038866;28;20120;-62
2022/06/03 06:41:39;;;;;;;5.63;4.30;;;14.70;86.50;;;;;;5049123;28;20032;-62
2022/06/03 06:44:31;;;;;;;4.95;4.50;;;14.80;86.20;;;;;;5032794;28;20053;-62
2022/06/03 06:47:35;;;;;;;6.07;4.47;;;14.80;85.90;;;;;;5031978;28;20022;-62
2022/06/03 06:50:26;;;;;;;6.15;4.07;;;14.90;86.00;;;;;;5022498;28;20028;-62
2022/06/03 06:53:03;;;;;;;4.75;3.85;;;15.00;85.50;;;;;;5031527;28;20061;-62
2022/06/03 06:56:08;;;;;;;5.18;4.60;;;15.00;85.30;;;;;;5052039;28;20095;-62
2022/06/03 06:58:56;;;;;;;5.07;4.28;;;15.10;84.60;;;;;;5033656;28;20391;-62
2022/06/03 07:01:40;;;;;;;5.50;4.72;;;15.20;84.20;;;;;;5039484;28;20021;-62
2022/06/03 07:04:16;;;;;;;5.50;4.95;;;15.20;83.90;;;;;;5040528;28;20025;-62
2022/06/03 07:06:44;;;;;;;7.75;5.30;;;15.30;83.70;;;;;;5034862;28;20070;-62
2022/06/03 07:09:10;;;;;;;6.78;4.95;;;15.30;83.20;;;;;;5036251;28;20055;-62
2022/06/03 07:11:55;;;;;;;6.47;5.45;;;15.40;82.80;;;;;;5034258;28;20033;-62
2022/06/03 07:14:33;;;;;;;5.63;4.70;;;15.50;82.60;;;;;;5035522;28;20022;-62
2022/06/03 07:20:22;;;;;;;5.57;4.07;;;15.70;81.80;;;;;;5035246;28;20063;-62
2022/06/03 07:22:52;;;;;;;6.75;4.32;;;15.70;81.70;;;;;;5030913;28;20013;-62
2022/06/03 07:25:33;;;;;;;6.47;5.65;;;15.80;81.70;;;;;;5037508;28;20033;-62
2022/06/03 07:28:09;;;;;;;5.28;4.53;;;15.90;81.70;;;;;;5044950;28;20025;-62
2022/06/03 07:30:54;;;;;;;5.15;4.57;;;16.00;81.30;;;;;;5046313;28;20040;-62
2022/06/03 07:33:31;;;;;;;6.30;4.63;;;16.10;80.90;;;;;;5046581;28;20024;-62
2022/06/03 07:36:13;;;;;;;5.18;3.72;;;16.20;80.40;;;;;;5040637;28;20036;-62
2022/06/03 07:38:49;;;;;;;7.32;5.00;;;16.30;79.70;;;;;;5043195;28;20048;-62
2022/06/03 07:41:22;;;;;;;5.38;4.50;;;16.30;79.80;;;;;;5049146;28;20119;-62
2022/06/03 07:43:55;;;;;;;6.35;4.40;;;16.50;80.00;;;;;;5045206;28;20016;-62
2022/06/03 07:46:49;;;;;;;4.13;3.60;;;16.60;80.00;;;;;;5044131;28;20071;-62
2022/06/03 07:49:15;;;;;;;6.53;5.15;;;16.70;79.70;;;;;;5041504;28;20060;-62
2022/06/03 07:51:46;;;;;;;4.90;4.10;;;16.80;79.80;;;;;;5047696;28;20033;-62
2022/06/03 07:54:13;;;;;;;5.10;4.60;;;16.90;79.50;;;;;;5048709;28;20469;-62
2022/06/03 07:56:40;;;;;;;4.25;3.80;;;16.90;78.90;;;;;;5047626;28;20033;-62
2022/06/03 07:59:18;;;;;;;5.88;3.78;;;17.00;78.90;;;;;;5047985;28;20025;-62
2022/06/03 08:01:56;;;;;;;4.00;3.60;;;17.10;78.70;;;;;;5045865;28;20396;-62
2022/06/03 08:04:35;;;;;;;5.63;3.70;;;17.20;78.70;;;;;;5031955;28;20022;-63
2022/06/03 08:12:37;;;;;;;3.95;3.35;;;17.50;77.60;;;;;;5031860;28;20078;-63
2022/06/03 08:15:21;;;;;;;5.00;3.90;;;17.50;77.20;;;;;;5031486;28;20029;-62
2022/06/03 08:17:49;;;;;;;4.88;4.20;;;17.70;76.80;;;;;;5037828;28;20035;-63
2022/06/03 08:20:18;;;;;;;4.20;2.90;;;17.70;76.40;;;;;;5041027;28;20049;-63
2022/06/03 08:22:45;;;;;;;3.07;2.77;;;17.80;75.80;;;;;;5038788;28;20056;-62
2022/06/03 08:25:16;;;;;;;4.80;3.38;;;18.00;75.50;;;;;;5041460;28;20075;-62
2022/06/03 08:27:43;;;;;;;4.03;3.38;;;18.10;75.50;;;;;;5044092;28;20013;-62
2022/06/03 08:30:16;;;;;;;5.35;3.85;;;18.10;75.20;;;;;;5040848;28;20363;-63
2022/06/03 08:32:55;;;;;;;6.88;3.60;;;18.30;75.00;;;;;;5040345;28;20049;-62
2022/06/03 08:35:26;;;;;;;5.30;3.47;;;18.30;74.20;;;;;;5032102;28;20018;-62
2022/06/03 08:38:05;;;;;;;3.83;3.30;;;18.40;73.80;;;;;;5034249;28;20076;-62
2022/06/03 08:41:00;;;;;;;4.15;3.70;;;18.50;73.30;;;;;;5038236;28;20035;-62
2022/06/03 08:43:40;;;;;;;3.63;3.33;;;18.60;72.60;;;;;;5035511;28;20017;-62
2022/06/03 08:46:39;;;;;;;4.32;3.47;;;18.70;72.50;;;;;;5033409;28;20021;-62
2022/06/03 08:49:17;;;;;;;4.57;3.47;;;18.70;72.10;;;;;;5028479;28;20611;-62
2022/06/03 08:51:45;;;;;;;4.18;3.65;;;18.90;72.20;;;;;;5045766;28;20158;-62
2022/06/03 08:54:28;;;;;;;3.95;3.13;;;19.00;71.90;;;;;;5047813;28;20036;-63
2022/06/03 08:57:16;;;;;;;3.25;2.60;;;19.10;71.70;;;;;;5045635;28;20481;-62
2022/06/03 09:00:07;;;;;;;4.65;3.50;;;19.30;71.70;;;;;;5050089;28;20022;-62
2022/06/03 09:02:48;;;;;;;3.67;2.72;;;19.40;71.70;;;;;;5032223;28;20072;-63
2022/06/03 09:05:26;;;;;;;4.20;2.75;;;19.50;71.60;;;;;;5041814;28;20033;-63
2022/06/03 09:08:01;;;;;;;4.15;2.88;;;19.70;71.10;;;;;;5034222;28;20014;-63
2022/06/03 09:10:37;;;;;;;5.07;3.70;;;19.80;70.60;;;;;;5042161;28;20025;-63
2022/06/03 09:13:26;;;;;;;3.47;2.55;;;19.90;69.80;;;;;;5046348;28;20086;-63
2022/06/03 09:15:52;;;;;;;3.78;2.97;;;20.00;69.50;;;;;;5034924;28;20022;-63
2022/06/03 09:18:30;;;;;;;4.85;2.30;;;20.10;68.30;;;;;;5034578;28;20482;-63
2022/06/03 09:21:04;;;;;;;3.30;2.05;;;20.20;67.80;;;;;;5044308;28;20041;-63
2022/06/03 09:23:37;;;;;;;3.05;2.50;;;20.30;68.10;;;;;;5038174;28;20067;-63
2022/06/03 09:26:04;;;;;;;4.25;2.58;;;20.40;67.30;;;;;;5032761;28;20044;-63
2022/06/03 09:28:33;;;;;;;3.40;2.80;;;20.50;66.50;;;;;;5034223;28;20025;-63
2022/06/03 09:31:02;;;;;;;2.60;2.13;;;20.50;66.20;;;;;;5045092;28;20032;-63
2022/06/03 09:33:30;;;;;;;3.27;2.97;;;20.70;66.50;;;;;;5035981;28;20041;-63
2022/06/03 09:36:00;;;;;;;3.38;3.08;;;20.70;64.90;;;;;;5039090;28;20262;-63
2022/06/03 09:38:34;;;;;;;3.03;2.22;;;20.80;64.40;;;;;;5046285;28;20075;-63
2022/06/03 09:41:00;;;;;;;2.90;2.03;;;20.80;65.00;;;;;;5052385;28;20029;-63
2022/06/03 09:43:32;;;;;;;2.28;1.60;;;20.90;64.40;;;;;;5033681;28;20017;-63
2022/06/03 09:45:59;;;;;;;4.95;2.22;;;21.00;63.70;;;;;;5033429;28;20116;-63
2022/06/03 09:48:29;;;;;;;2.47;1.65;;;21.00;63.10;;;;;;5033881;28;20478;-63
2022/06/03 09:50:58;;;;;;;2.33;1.88;;;21.10;62.70;;;;;;5047859;28;20032;-63
2022/06/03 09:53:30;;;;;;;5.00;1.95;;;21.20;62.20;;;;;;5044169;28;20054;-63
2022/06/03 09:56:00;;;;;;;2.72;2.47;;;21.30;62.50;;;;;;5050192;28;20025;-63
2022/06/03 09:58:30;;;;;;;4.07;1.95;;;21.40;62.60;;;;;;5042332;28;20469;-63
2022/06/03 10:00:58;;;;;;;2.20;1.10;;;21.50;61.60;;;;;;5033217;28;20393;-63
2022/06/03 10:03:25;;;;;;;2.53;1.92;;;21.50;61.00;;;;;;5042238;28;20370;-63
2022/06/03 10:05:55;;;;;;;2.30;1.50;;;21.60;59.90;;;;;;5043159;28;20087;-63
2022/06/03 10:08:23;;;;;;;;;;;21.70;59.60;;;;;;5040701;28;20159;-63
2022/06/03 10:13:39;;;;;;;2.75;0.90;;;21.70;59.70;;;;;;5034603;28;20599;-63
2022/06/03 10:16:07;;;;;;;1.00;0.80;;;21.90;58.00;;;;;;5035418;28;20370;-63
2022/06/03 10:18:46;;;;;;;2.92;0.88;;;21.90;56.70;;;;;;5035021;28;20032;-63
2022/06/03 10:21:12;;;;;;;2.67;1.00;;;22.00;56.40;;;;;;5041917;28;20116;-63
2022/06/03 10:24:02;;;;;;;4.35;1.10;;;22.10;56.20;;;;;;5049800;28;20103;-63
2022/06/03 10:26:34;;;;;;;0.85;0.60;;;22.10;55.80;;;;;;5049149;28;20034;-63
2022/06/03 10:29:10;;;;;;;1.55;0.98;;;22.30;56.00;;;;;;5050484;28;20481;-63
2022/06/03 10:31:36;;;;;;;2.13;0.82;;;22.40;55.40;;;;;;5047309;28;20025;-63
2022/06/03 10:34:11;;;;;;;1.70;1.02;;;22.50;55.40;;;;;;5044937;28;20425;-63
2022/06/03 10:36:41;;;;;;;2.15;1.02;;;22.60;55.40;;;;;;5042930;28;20428;-63
2022/06/03 10:39:09;;;;;;;2.20;1.20;;;22.60;54.00;;;;;;5043982;28;20022;-63
2022/06/03 10:41:56;;;;;;;3.67;1.30;;;22.70;53.80;;;;;;5049857;28;20060;-63
2022/06/03 10:44:28;;;;;;;2.00;1.23;;;22.80;54.30;;;;;;5042832;28;20017;-63
2022/06/03 10:47:04;;;;;;;1.80;1.50;;;22.80;54.80;;;;;;5042856;28;20021;-63
2022/06/03 10:49:51;;;;;;;2.50;1.10;;;22.90;53.80;;;;;;5045317;28;20025;-63
2022/06/03 11:01:19;;;;;;;1.58;0.93;;;23.30;52.20;;;;;;5036120;28;20606;-62
2022/06/03 11:03:51;;;;;;;1.00;0.80;;;23.50;51.60;;;;;;5033197;28;20029;-63
2022/06/03 11:06:22;;;;;;;2.53;0.93;;;23.60;50.60;;;;;;5035192;28;20032;-63
2022/06/03 11:08:59;;;;;;;1.30;0.90;;;23.70;49.90;;;;;;5031905;28;20397;-63
2022/06/03 11:11:52;;;;;;;2.42;1.00;;;23.90;50.60;;;;;;5043127;28;20018;-63
2022/06/03 11:14:39;;;;;;;1.20;0.90;;;24.00;50.00;;;;;;5047554;28;20396;-63
2022/06/03 11:17:16;;;;;;;2.67;1.35;;;24.10;49.40;;;;;;5045093;28;20028;-63
2022/06/03 11:19:47;;;;;;;1.08;0.90;;;24.30;48.70;;;;;;5049170;28;20060;-63
2022/06/03 11:22:33;;;;;;;2.03;0.93;;;24.40;48.40;;;;;;5047152;28;20404;-63
2022/06/03 11:25:20;;;;;;;1.13;0.82;;;24.60;49.00;;;;;;5046200;28;20037;-63
2022/06/03 11:28:11;;;;;;;1.50;0.90;;;24.80;49.00;;;;;;5049640;28;20014;-63
2022/06/03 11:30:46;;;;;;;2.10;1.10;;;25.00;48.00;;;;;;5049843;28;20142;-63
2022/06/03 11:33:15;;;;;;;3.25;1.27;;;25.10;47.10;;;;;;5044349;28;20104;-63
2022/06/03 11:35:51;;;;;;;2.25;1.20;;;25.20;46.40;;;;;;5048033;28;20025;-63
2022/06/03 11:38:25;;;;;;;1.65;0.60;;;25.40;46.90;;;;;;5048583;28;20519;-63
2022/06/03 11:40:54;;;;;;;2.42;1.10;;;25.60;47.10;;;;;;5048557;28;20036;-63
2022/06/03 11:43:32;;;;;;;3.00;0.90;;;25.70;46.10;;;;;;5045329;28;20021;-63
2022/06/03 11:46:04;;;;;;;1.17;0.60;;;25.80;46.20;;;;;;5049340;28;20453;-64
2022/06/03 11:48:37;;;;;;;1.80;0.70;;;25.90;45.50;;;;;;5045461;28;20060;-63
2022/06/03 11:51:05;;;;;;;1.48;0.80;;;26.10;46.30;;;;;;5044275;28;20033;-64
2022/06/03 11:53:35;;;;;;;0.75;0.55;;;26.30;46.10;;;;;;5050124;28;20045;-63
2022/06/03 11:56:03;;;;;;;2.17;0.70;;;26.50;46.00;;;;;;5042691;28;20473;-63
2022/06/03 11:58:50;;;;;;;1.33;0.80;;;26.70;45.80;;;;;;5046230;28;20489;-63
2022/06/03 12:01:50;;;;;;;1.20;0.70;;;26.80;44.90;;;;;;5042527;28;20025;-63
2022/06/03 12:04:15;;;;;;;1.05;0.77;;;26.80;44.80;;;;;;5029444;28;20029;-63
2022/06/03 12:06:43;;;;;;;2.47;0.70;;;26.90;44.50;;;;;;5033390;28;20036;-63
2022/06/03 12:09:23;;;;;;;1.05;0.70;;;27.00;44.50;;;;;;5040990;28;20025;-64
2022/06/03 12:15:26;;;;;;;3.70;0.77;;;27.30;43.60;;;;;;5034127;28;20037;-63
2022/06/03 12:17:52;;;;;;;1.00;0.50;;;27.40;42.50;;;;;;5035222;28;20116;-63
2022/06/03 12:20:30;;;;;;;2.25;0.70;;;27.60;42.60;;;;;;5035304;28;20493;-63
2022/06/03 12:22:56;;;;;;;1.08;0.60;;;27.80;42.90;;;;;;5038600;28;20025;-63
2022/06/03 12:25:40;;;;;;;1.30;0.70;;;27.90;42.50;;;;;;5034992;28;20026;-63
2022/06/03 12:28:16;;;;;;;0.70;0.40;;;28.20;42.70;;;;;;5035091;28;20075;-64
2022/06/03 12:30:50;;;;;;;1.38;0.70;;;28.40;42.70;;;;;;5038805;28;20083;-64
2022/06/03 12:33:46;;;;;;;4.30;1.00;;;28.70;42.10;;;;;;5037630;28;20021;-64
2022/06/03 12:36:23;;;;;;;0.73;0.50;;;28.80;41.90;;;;;;5041615;28;20022;-64
2022/06/03 12:39:17;;;;;;;5.30;0.60;;;28.90;41.30;;;;;;5042569;28;20480;-64
2022/06/03 12:41:46;;;;;;;0.77;0.50;;;29.10;41.30;;;;;;5049117;28;20036;-64
2022/06/03 12:44:33;;;;;;;6.23;0.77;;;29.20;40.50;;;;;;5035170;28;20034;-64
2022/06/03 12:47:17;;;;;;;0.52;0.43;;;29.20;39.90;;;;;;5042697;28;20025;-64
2022/06/03 12:49:43;;;;;;;1.35;0.50;;;29.10;40.20;;;;;;5036764;28;20020;-64
2022/06/03 12:52:25;;;;;;;1.02;0.50;;;29.10;40.00;;;;;;5034860;28;20124;-64
2022/06/03 12:55:07;;;;;;;0.95;0.40;;;29.20;39.70;;;;;;5034138;28;20488;-64
2022/06/03 12:57:49;;;;;;;1.00;0.50;;;29.20;39.30;;;;;;5036675;28;20022;-64
2022/06/03 13:00:32;;;;;;;0.52;0.50;;;29.30;39.50;;;;;;5041780;28;20382;-64
2022/06/03 13:03:01;;;;;;;0.90;0.50;;;29.50;38.90;;;;;;5039784;28;20028;-64
2022/06/03 13:05:41;;;;;;;1.05;0.50;;;29.60;38.40;;;;;;5046616;28;20021;-64
2022/06/03 13:08:32;;;;;;;0.90;0.50;;;29.60;38.60;;;;;;5040953;28;20037;-64
2022/06/03 13:10:57;;;;;;;1.65;0.50;;;29.70;38.50;;;;;;5056664;28;20024;-64
2022/06/03 13:13:34;;;;;;;0.70;0.50;;;29.70;39.00;;;;;;5047597;28;20029;-64
2022/06/03 13:16:19;;;;;;;1.20;0.52;;;29.70;39.00;;;;;;5044453;28;20109;-64
2022/06/03 13:18:56;;;;;;;0.70;0.50;;;29.60;38.20;;;;;;5050046;28;20029;-64
2022/06/03 13:21:47;;;;;;;1.92;0.50;;;29.50;38.20;;;;;;5045134;28;20021;-64
2022/06/03 13:24:26;;;;;;;1.85;0.70;;;29.60;38.50;;;;;;5038953;28;20025;-64
2022/06/03 13:27:33;;;;;;;1.80;0.45;;;29.70;38.20;;;;;;5034589;28;20029;-64
2022/06/03 13:30:11;;;;;;;1.27;0.50;;;29.70;38.90;;;;;;5046268;28;20046;-64
2022/06/03 13:32:36;;;;;;;0.93;0.40;;;29.80;38.40;;;;;;5044898;28;20021;-64
2022/06/03 13:35:18;;;;;;;2.42;0.70;;;30.00;38.60;;;;;;5048233;28;20120;-64
2022/06/03 13:37:54;;;;;;;1.13;0.43;;;30.10;38.30;;;;;;5047351;28;20462;-64
2022/06/03 13:40:25;;;;;;;0.57;0.45;;;30.20;38.10;;;;;;5046753;28;20021;-64
2022/06/03 13:43:17;;;;;;;0.60;0.43;;;30.20;37.90;;;;;;5045235;28;20019;-64
2022/06/03 13:45:46;;;;;;;0.85;0.40;;;30.20;37.80;;;;;;5040347;28;20360;-64
2022/06/03 13:48:21;;;;;;;0.95;0.68;;;30.20;38.00;;;;;;5048178;28;20013;-64
2022/06/03 13:50:47;;;;;;;2.05;0.50;;;30.20;37.40;;;;;;5049724;28;20025;-64
2022/06/03 13:53:23;;;;;;;1.27;0.57;;;30.30;38.00;;;;;;5055578;28;20120;-64
2022/06/03 13:55:54;;;;;;;1.02;0.50;;;30.40;37.90;;;;;;5063767;28;20035;-64
2022/06/03 13:58:33;;;;;;;0.93;0.50;;;30.40;38.10;;;;;;5055512;28;20027;-64
2022/06/03 14:01:22;;;;;;;0.68;0.45;;;30.50;38.10;;;;;;5046736;28;20061;-64
2022/06/03 14:04:19;;;;;;;0.88;0.50;;;30.50;37.80;;;;;;5035593;28;20017;-64
2022/06/03 14:07:11;;;;;;;1.38;0.60;;;30.50;38.10;;;;;;5032973;28;20037;-64
2022/06/03 14:09:48;;;;;;;2.03;0.60;;;30.50;38.50;;;;;;5041691;28;20032;-64
2022/06/03 14:12:55;;;;;;;1.05;0.50;;;30.30;38.10;;;;;;5037613;28;20053;-64
2022/06/03 14:15:31;;;;;;;1.20;0.50;;;30.20;37.70;;;;;;5047099;28;20029;-64
2022/06/03 14:18:02;;;;;;;4.55;0.50;;;30.10;37.90;;;;;;5033042;28;20033;-64
2022/06/03 14:20:36;;;;;;;0.90;0.50;;;30.10;38.20;;;;;;5046446;28;20075;-64
2022/06/03 14:23:25;;;;;;;0.50;0.50;;;30.10;38.00;;;;;;5042295;28;20033;-64
2022/06/03 14:26:20;;;;;;;0.88;0.50;;;30.10;38.20;;;;;;5050760;28;20398;-64
2022/06/03 14:29:14;;;;;;;1.15;0.70;;;30.10;38.60;;;;;;5041990;28;20432;-65